Time;durP1;ratioP1;P1;durP2;ratioP2;P2;SDS_P1;SDS_P2;PMS_P1;PMS_P2;Temp;Humidity;BMP_temperature;BMP_pressure;BME280_temperature;BME280_humidity;BME280_pressure;Samples;Min_cycle;Max_cycle;Signal;HPM_P1;HPM_P2
2020/12/27 00:00:15;;;;;;;5.15;2.53;;;5.40;95.00;;;;;;5059034;28;20380;-86
2020/12/27 00:02:41;;;;;;;4.22;2.88;;;5.40;94.90;;;;;;5075051;28;20481;-86
2020/12/27 00:05:07;;;;;;;4.38;2.67;;;5.40;94.80;;;;;;5058345;28;20101;-87
2020/12/27 00:07:34;;;;;;;3.33;2.42;;;5.40;94.90;;;;;;5054986;28;20054;-86
2020/12/27 00:10:00;;;;;;;5.35;3.05;;;5.50;94.80;;;;;;5058558;28;20059;-87
2020/12/27 00:12:26;;;;;;;4.50;2.78;;;5.50;94.60;;;;;;5059078;28;20481;-88
2020/12/27 00:14:51;;;;;;;3.67;2.47;;;5.40;94.40;;;;;;5093957;28;20020;-88
2020/12/27 00:17:17;;;;;;;3.50;2.70;;;5.40;94.70;;;;;;5055954;28;20024;-89
2020/12/27 00:19:43;;;;;;;4.10;2.55;;;5.40;94.60;;;;;;5066286;28;20115;-90
2020/12/27 00:22:09;;;;;;;6.20;2.63;;;5.40;94.50;;;;;;5055839;28;20470;-90
2020/12/27 00:24:35;;;;;;;3.30;2.33;;;5.40;94.40;;;;;;5052193;28;20136;-90
2020/12/27 00:27:01;;;;;;;4.55;2.80;;;5.40;94.60;;;;;;5054331;28;20045;-90
2020/12/27 00:29:28;;;;;;;5.38;2.50;;;5.40;94.30;;;;;;5052214;28;20046;-90
2020/12/27 00:31:55;;;;;;;4.38;2.70;;;5.40;94.20;;;;;;5066887;28;20020;-90
2020/12/27 00:34:21;;;;;;;5.03;2.42;;;5.40;94.30;;;;;;5052304;28;20473;-90
2020/12/27 00:36:48;;;;;;;4.47;2.72;;;5.40;94.10;;;;;;5067325;28;20085;-90
2020/12/27 00:39:14;;;;;;;3.03;2.15;;;5.30;94.00;;;;;;5072203;28;20031;-90
2020/12/27 00:41:39;;;;;;;3.80;2.08;;;5.40;94.10;;;;;;5073190;28;20039;-89
2020/12/27 00:44:05;;;;;;;4.80;2.58;;;5.40;94.10;;;;;;5036350;28;20032;-89
2020/12/27 00:46:31;;;;;;;3.95;2.40;;;5.40;93.90;;;;;;5053381;28;20025;-89
2020/12/27 00:48:57;;;;;;;3.20;2.17;;;5.40;94.10;;;;;;5071955;28;20046;-90
2020/12/27 00:51:24;;;;;;;3.63;2.47;;;5.40;94.00;;;;;;5051926;28;20033;-89
2020/12/27 00:53:50;;;;;;;4.28;2.45;;;5.40;93.80;;;;;;5066719;28;20151;-89
2020/12/27 00:56:16;;;;;;;2.80;2.20;;;5.40;93.90;;;;;;5068806;28;20025;-90
2020/12/27 00:58:42;;;;;;;4.25;2.65;;;5.40;93.70;;;;;;5044993;28;20493;-90
2020/12/27 01:01:09;;;;;;;4.95;2.40;;;5.40;93.70;;;;;;5057284;28;20060;-89
2020/12/27 01:03:35;;;;;;;4.13;2.42;;;5.40;93.60;;;;;;5052097;28;20059;-90
2020/12/27 01:06:01;;;;;;;3.97;2.38;;;5.40;93.70;;;;;;5049700;28;20090;-91
2020/12/27 01:08:27;;;;;;;3.42;2.05;;;5.40;93.40;;;;;;5062654;28;20068;-90
2020/12/27 01:10:53;;;;;;;3.30;2.17;;;5.40;93.50;;;;;;5038919;28;20024;-90
2020/12/27 01:13:26;;;;;;;3.40;2.25;;;5.30;93.40;;;;;;5051674;28;20470;-90
2020/12/27 01:15:51;;;;;;;3.83;2.30;;;5.30;93.50;;;;;;5064641;28;20405;-89
2020/12/27 01:18:17;;;;;;;2.72;1.98;;;5.30;93.40;;;;;;5052303;28;20017;-90
2020/12/27 01:20:43;;;;;;;3.58;2.50;;;5.30;93.40;;;;;;5063467;28;20033;-90
2020/12/27 01:23:08;;;;;;;4.03;2.30;;;5.30;93.40;;;;;;5071498;28;20060;-90
2020/12/27 01:25:34;;;;;;;3.40;2.20;;;5.20;93.40;;;;;;5048374;23;20127;-90
2020/12/27 01:28:00;;;;;;;3.65;2.30;;;5.20;93.50;;;;;;5006839;28;20021;-90
2020/12/27 01:30:26;;;;;;;5.05;2.53;;;5.20;93.50;;;;;;5024283;28;20036;-91
2020/12/27 01:32:52;;;;;;;4.80;2.58;;;5.20;93.50;;;;;;5015453;28;20025;-90
2020/12/27 01:35:17;;;;;;;3.97;2.70;;;5.20;93.60;;;;;;5018246;28;20061;-90
2020/12/27 01:37:43;;;;;;;4.75;2.63;;;5.20;93.50;;;;;;5004895;28;20028;-89
2020/12/27 01:40:09;;;;;;;5.95;3.08;;;5.20;93.40;;;;;;5025324;28;20022;-90
2020/12/27 01:42:34;;;;;;;4.93;2.90;;;5.20;93.50;;;;;;5014371;28;20018;-90
2020/12/27 01:45:00;;;;;;;7.13;3.08;;;5.10;93.50;;;;;;5035293;28;20115;-90
2020/12/27 01:47:31;;;;;;;4.90;3.13;;;5.20;93.50;;;;;;5035297;28;20036;-90
2020/12/27 01:49:58;;;;;;;5.90;2.80;;;5.10;93.50;;;;;;5041968;28;20040;-89
2020/12/27 01:52:23;;;;;;;4.43;2.78;;;5.10;93.30;;;;;;5030644;28;20525;-90
2020/12/27 01:54:50;;;;;;;4.50;2.88;;;5.10;93.50;;;;;;5023469;28;20025;-89
2020/12/27 01:57:33;;;;;;;5.25;3.20;;;5.10;93.30;;;;;;5054921;28;20021;-90
2020/12/27 01:59:59;;;;;;;5.95;2.80;;;5.10;93.40;;;;;;5040776;28;20020;-90
2020/12/27 02:02:24;;;;;;;6.65;2.85;;;5.10;93.40;;;;;;5021974;28;20029;-90
2020/12/27 02:04:51;;;;;;;6.68;2.90;;;5.10;93.50;;;;;;5021002;28;20034;-89
2020/12/27 02:07:16;;;;;;;5.22;3.03;;;5.20;93.60;;;;;;5029712;28;20025;-90
2020/12/27 02:09:43;;;;;;;6.35;3.33;;;5.10;93.40;;;;;;5032241;28;20029;-89
2020/12/27 02:12:10;;;;;;;5.72;2.97;;;5.20;93.40;;;;;;5024894;28;20040;-84
2020/12/27 02:14:37;;;;;;;4.95;3.20;;;5.10;93.20;;;;;;5036987;28;20051;-84
2020/12/27 02:17:04;;;;;;;4.75;3.30;;;5.10;93.40;;;;;;5036820;28;20017;-85
2020/12/27 02:19:31;;;;;;;6.30;3.50;;;5.10;93.30;;;;;;5044766;28;20025;-85
2020/12/27 02:21:57;;;;;;;5.43;2.92;;;5.10;93.50;;;;;;5036519;28;20037;-85
2020/12/27 02:24:23;;;;;;;5.18;3.33;;;5.10;93.40;;;;;;5036483;28;20057;-85
2020/12/27 02:26:59;;;;;;;4.82;3.10;;;5.10;93.30;;;;;;5031103;28;20028;-85
2020/12/27 02:29:26;;;;;;;6.18;3.70;;;5.20;93.30;;;;;;5053228;28;20052;-85
2020/12/27 02:31:56;;;;;;;5.60;3.22;;;5.10;93.40;;;;;;5014061;28;20477;-85
2020/12/27 02:34:23;;;;;;;4.70;3.08;;;5.20;93.50;;;;;;5053019;28;20029;-85
2020/12/27 02:36:49;;;;;;;4.80;3.20;;;5.10;93.60;;;;;;5020182;28;20032;-85
2020/12/27 02:39:16;;;;;;;6.18;3.22;;;5.10;93.40;;;;;;5052870;28;20021;-85
2020/12/27 02:41:42;;;;;;;4.78;3.28;;;5.10;93.50;;;;;;5036284;28;20104;-85
2020/12/27 02:44:09;;;;;;;5.45;3.22;;;5.10;93.50;;;;;;5054121;28;20218;-84
2020/12/27 02:46:35;;;;;;;5.57;3.15;;;5.00;93.40;;;;;;5052949;28;20407;-85
2020/12/27 02:49:01;;;;;;;4.80;2.95;;;5.10;93.50;;;;;;5054087;28;20110;-84
2020/12/27 02:51:28;;;;;;;6.22;3.15;;;5.10;93.50;;;;;;5036163;28;20064;-85
2020/12/27 02:53:54;;;;;;;5.10;2.92;;;5.10;93.80;;;;;;5032900;28;20025;-84
2020/12/27 02:56:25;;;;;;;4.72;3.20;;;5.10;93.40;;;;;;5052193;28;20474;-85
2020/12/27 02:58:53;;;;;;;8.65;3.35;;;5.10;93.30;;;;;;5028655;28;20120;-85
2020/12/27 03:01:19;;;;;;;5.75;3.22;;;5.10;93.40;;;;;;5035852;28;20087;-84
2020/12/27 03:03:45;;;;;;;6.93;3.95;;;5.10;93.40;;;;;;5035977;28;20478;-85
2020/12/27 03:06:11;;;;;;;5.05;2.95;;;5.10;93.40;;;;;;5035739;28;20033;-86
2020/12/27 03:08:38;;;;;;;5.60;2.83;;;5.10;93.40;;;;;;5027519;28;20025;-85
2020/12/27 03:11:03;;;;;;;7.00;3.28;;;5.10;93.50;;;;;;5029958;28;20045;-85
2020/12/27 03:13:31;;;;;;;4.53;2.95;;;5.10;93.50;;;;;;5009428;28;20532;-86
2020/12/27 03:15:57;;;;;;;6.63;3.08;;;5.10;93.30;;;;;;5036028;28;20498;-85
2020/12/27 03:18:22;;;;;;;4.72;2.60;;;5.10;93.50;;;;;;5019242;28;20056;-85
2020/12/27 03:20:49;;;;;;;5.78;2.60;;;5.10;93.40;;;;;;5025184;28;20026;-85
2020/12/27 03:23:15;;;;;;;5.07;2.70;;;5.10;93.40;;;;;;5016403;28;20486;-85
2020/12/27 03:25:42;;;;;;;5.68;3.08;;;5.10;93.40;;;;;;5015397;28;20406;-85
2020/12/27 03:28:07;;;;;;;4.65;2.88;;;5.10;93.40;;;;;;5043694;28;20057;-85
2020/12/27 03:30:33;;;;;;;5.95;2.83;;;5.10;93.30;;;;;;5035417;28;20060;-85
2020/12/27 03:32:58;;;;;;;6.43;2.80;;;5.10;93.30;;;;;;5002750;28;20032;-85
2020/12/27 03:35:24;;;;;;;4.53;2.90;;;5.10;93.30;;;;;;5026770;28;20029;-85
2020/12/27 03:37:50;;;;;;;5.43;2.83;;;5.10;93.40;;;;;;5035321;28;20112;-85
2020/12/27 03:40:16;;;;;;;5.53;2.88;;;5.10;93.40;;;;;;5035495;28;20079;-85
2020/12/27 03:42:41;;;;;;;6.13;2.70;;;5.10;93.40;;;;;;5031952;28;20017;-85
2020/12/27 03:45:07;;;;;;;5.97;2.67;;;5.10;93.40;;;;;;5002434;28;20432;-85
2020/12/27 03:47:33;;;;;;;5.45;2.90;;;5.10;93.40;;;;;;5052993;28;20120;-85
2020/12/27 03:49:58;;;;;;;4.57;2.85;;;5.00;93.80;;;;;;5035062;28;20025;-85
2020/12/27 03:52:24;;;;;;;6.28;2.97;;;5.00;93.70;;;;;;5023399;28;20017;-85
2020/12/27 03:54:49;;;;;;;5.57;3.30;;;5.00;93.90;;;;;;5016697;28;20170;-85
2020/12/27 03:57:15;;;;;;;5.75;3.00;;;5.00;93.80;;;;;;5025248;28;20087;-85
2020/12/27 03:59:41;;;;;;;7.03;3.15;;;5.00;93.90;;;;;;5014679;28;20508;-85
2020/12/27 04:02:06;;;;;;;5.43;3.00;;;5.00;93.70;;;;;;5002300;28;20110;-85
2020/12/27 04:04:32;;;;;;;5.20;2.95;;;5.00;93.90;;;;;;5021017;28;20025;-85
2020/12/27 04:06:57;;;;;;;5.40;2.65;;;5.00;93.70;;;;;;5004512;28;20359;-85
2020/12/27 04:09:23;;;;;;;4.65;2.58;;;5.00;93.60;;;;;;5034801;28;20045;-85
2020/12/27 04:11:49;;;;;;;4.80;2.47;;;5.00;93.70;;;;;;5019887;28;20021;-85
2020/12/27 04:14:15;;;;;;;4.97;2.47;;;5.10;93.60;;;;;;5015028;28;20025;-85
2020/12/27 04:16:40;;;;;;;4.30;2.88;;;5.10;93.70;;;;;;5013827;28;20513;-85
2020/12/27 04:19:06;;;;;;;4.90;2.70;;;5.00;93.70;;;;;;5052633;28;20021;-85
2020/12/27 04:21:32;;;;;;;3.75;2.53;;;5.10;93.80;;;;;;5014962;28;20034;-84
2020/12/27 04:23:58;;;;;;;4.15;2.50;;;5.10;93.70;;;;;;5017656;28;20031;-85
2020/12/27 04:26:24;;;;;;;6.63;2.50;;;5.10;93.60;;;;;;5014435;28;20148;-84
2020/12/27 04:28:49;;;;;;;5.03;2.80;;;5.10;93.70;;;;;;4999235;28;20033;-85
2020/12/27 04:31:18;;;;;;;3.83;2.45;;;5.10;93.50;;;;;;5025150;28;20121;-85
2020/12/27 04:33:44;;;;;;;4.43;2.40;;;5.10;93.60;;;;;;5029999;28;20405;-85
2020/12/27 04:36:10;;;;;;;3.80;2.80;;;5.10;93.50;;;;;;5034463;28;20028;-84
2020/12/27 04:38:35;;;;;;;4.22;2.30;;;5.10;93.50;;;;;;5028440;28;20116;-86
2020/12/27 04:41:02;;;;;;;3.65;2.20;;;5.20;93.30;;;;;;5018997;28;20032;-88
2020/12/27 04:43:28;;;;;;;4.93;3.05;;;5.20;93.30;;;;;;5034727;28;20103;-86
2020/12/27 04:45:59;;;;;;;4.75;2.10;;;5.20;93.40;;;;;;5050999;28;20075;-86
2020/12/27 04:48:26;;;;;;;3.75;2.10;;;5.30;93.20;;;;;;5034512;28;20036;-85
2020/12/27 04:50:53;;;;;;;3.92;1.92;;;5.30;93.30;;;;;;5016436;28;20091;-88
2020/12/27 04:53:19;;;;;;;4.15;2.35;;;5.30;93.10;;;;;;5034481;28;20021;-87
2020/12/27 04:55:48;;;;;;;5.95;2.25;;;5.30;93.10;;;;;;5014601;28;20032;-87
2020/12/27 04:58:18;;;;;;;4.47;1.90;;;5.30;93.10;;;;;;5034557;28;20464;-87
2020/12/27 05:00:43;;;;;;;2.80;1.80;;;5.30;93.10;;;;;;5052169;28;20033;-86
2020/12/27 05:03:09;;;;;;;3.22;1.85;;;5.40;93.10;;;;;;5014431;28;20030;-87
2020/12/27 05:05:35;;;;;;;4.07;1.75;;;5.40;93.00;;;;;;5017757;28;20501;-86
2020/12/27 05:08:00;;;;;;;1.67;1.40;;;5.40;93.20;;;;;;5001443;28;20043;-86
2020/12/27 05:10:26;;;;;;;3.20;1.63;;;5.40;93.20;;;;;;5018072;28;20496;-87
2020/12/27 05:12:54;;;;;;;2.92;1.30;;;5.40;93.50;;;;;;5029264;28;20124;-86
2020/12/27 05:15:23;;;;;;;2.97;1.60;;;5.40;93.30;;;;;;5050767;28;20060;-87
2020/12/27 05:17:50;;;;;;;1.83;1.50;;;5.40;93.50;;;;;;5037090;28;20076;-88
2020/12/27 05:20:18;;;;;;;2.92;1.60;;;5.40;93.60;;;;;;5034434;28;20025;-86
2020/12/27 05:22:45;;;;;;;1.90;1.27;;;5.40;93.70;;;;;;5032622;28;20026;-87
2020/12/27 05:25:11;;;;;;;2.78;1.50;;;5.40;93.80;;;;;;5019277;28;20049;-87
2020/12/27 05:27:42;;;;;;;2.63;1.50;;;5.30;93.90;;;;;;5038427;28;20029;-88
2020/12/27 05:30:09;;;;;;;3.47;1.50;;;5.30;94.10;;;;;;5051423;28;20356;-88
2020/12/27 05:32:35;;;;;;;2.33;1.33;;;5.30;94.20;;;;;;5044279;28;20029;-88
2020/12/27 05:35:09;;;;;;;2.80;1.38;;;5.30;94.60;;;;;;5021201;28;20036;-88
2020/12/27 05:37:36;;;;;;;1.83;1.30;;;5.30;94.60;;;;;;5026570;28;20044;-87
2020/12/27 05:40:08;;;;;;;3.08;1.27;;;5.30;94.80;;;;;;5054266;28;20021;-87
2020/12/27 05:42:35;;;;;;;3.28;1.20;;;5.30;94.80;;;;;;5054306;28;20474;-87
2020/12/27 05:45:14;;;;;;;2.53;1.40;;;5.30;95.00;;;;;;5021816;28;20024;-87
2020/12/27 05:47:42;;;;;;;3.92;1.33;;;5.30;95.20;;;;;;5054055;28;20070;-87
2020/12/27 05:50:13;;;;;;;2.03;1.10;;;5.30;95.30;;;;;;5037579;28;20036;-87
2020/12/27 05:52:42;;;;;;;;;;;5.20;95.20;;;;;;5038281;28;20382;-86
2020/12/27 05:55:14;;;;;;;2.72;1.25;;;5.20;95.40;;;;;;5054228;28;19940;-87
2020/12/27 05:57:42;;;;;;;0.85;0.75;;;5.20;95.60;;;;;;5021826;28;20028;-86
2020/12/27 06:00:08;;;;;;;1.58;1.05;;;5.10;95.60;;;;;;5037605;28;20474;-86
2020/12/27 06:02:41;;;;;;;1.83;1.00;;;5.10;95.70;;;;;;5037507;28;20029;-86
2020/12/27 06:05:08;;;;;;;2.85;0.90;;;5.10;95.70;;;;;;5055162;28;20039;-86
2020/12/27 06:07:36;;;;;;;1.30;0.90;;;5.10;95.80;;;;;;5037534;28;20028;-87
2020/12/27 06:10:11;;;;;;;1.25;0.80;;;5.10;95.80;;;;;;5037643;28;20104;-87
2020/12/27 06:12:45;;;;;;;1.35;0.68;;;5.10;95.90;;;;;;5054038;28;20036;-86
2020/12/27 06:15:26;;;;;;;3.78;0.85;;;5.20;95.80;;;;;;5055226;28;20032;-87
2020/12/27 06:17:52;;;;;;;0.85;0.60;;;5.20;95.80;;;;;;5053749;28;20013;-88
2020/12/27 06:20:22;;;;;;;1.67;1.00;;;5.20;95.90;;;;;;5017324;28;20029;-87
2020/12/27 06:22:49;;;;;;;1.13;0.60;;;5.20;96.10;;;;;;5046669;28;20044;-87
2020/12/27 06:25:16;;;;;;;1.98;0.82;;;5.20;96.00;;;;;;5036810;28;20494;-85
2020/12/27 06:27:42;;;;;;;0.70;0.70;;;5.20;96.10;;;;;;5036886;28;20120;-85
2020/12/27 06:30:10;;;;;;;1.20;0.60;;;5.10;96.00;;;;;;5006634;28;20018;-86
2020/12/27 06:32:47;;;;;;;1.17;0.60;;;5.10;96.00;;;;;;5043973;28;20029;-86
2020/12/27 06:35:12;;;;;;;1.67;0.60;;;5.20;96.10;;;;;;5049335;28;20374;-85
2020/12/27 06:37:46;;;;;;;0.52;0.45;;;5.10;96.10;;;;;;5036629;28;20025;-86
2020/12/27 06:40:13;;;;;;;1.20;0.60;;;5.20;96.30;;;;;;5048979;28;20056;-85
2020/12/27 06:42:40;;;;;;;0.63;0.50;;;5.20;96.30;;;;;;5053570;28;20040;-90
2020/12/27 06:45:24;;;;;;;0.95;0.50;;;5.10;96.50;;;;;;5018359;28;20048;-91
2020/12/27 06:47:59;;;;;;;1.63;0.70;;;5.20;96.50;;;;;;5039415;28;20504;-91
2020/12/27 06:50:26;;;;;;;0.50;0.30;;;5.10;96.80;;;;;;5009656;28;20033;-89
2020/12/27 06:52:52;;;;;;;1.30;0.73;;;5.10;96.80;;;;;;5048713;28;20013;-91
2020/12/27 06:55:38;;;;;;;2.47;0.70;;;5.10;97.00;;;;;;5028908;28;20029;-90
2020/12/27 06:58:33;;;;;;;0.50;0.50;;;5.20;97.00;;;;;;5054541;28;20010;-90
2020/12/27 07:01:22;;;;;;;0.70;0.60;;;5.10;97.00;;;;;;5024137;28;20041;-90
2020/12/27 07:03:48;;;;;;;1.80;0.68;;;5.10;97.10;;;;;;5022264;28;20025;-90
2020/12/27 07:06:25;;;;;;;3.70;0.70;;;5.20;97.20;;;;;;5036154;28;20029;-90
2020/12/27 07:08:56;;;;;;;1.35;0.55;;;5.20;97.10;;;;;;5012184;28;20425;-90
2020/12/27 07:11:29;;;;;;;1.23;0.65;;;5.20;97.20;;;;;;5037881;28;20025;-87
2020/12/27 07:13:57;;;;;;;0.90;0.50;;;5.20;97.20;;;;;;5043597;28;20029;-88
2020/12/27 07:16:38;;;;;;;1.55;0.60;;;5.20;97.30;;;;;;5032453;28;20035;-87
2020/12/27 07:19:04;;;;;;;1.23;0.60;;;5.20;97.30;;;;;;5033402;28;20021;-87
2020/12/27 07:21:30;;;;;;;1.23;0.60;;;5.20;97.10;;;;;;5016017;28;20040;-89
2020/12/27 07:26:33;;;;;;;1.33;0.70;;;5.30;97.30;;;;;;5090231;28;20551;-86
2020/12/27 07:29:10;;;;;;;0.98;0.50;;;5.30;97.30;;;;;;5085901;28;20024;-87
2020/12/27 07:31:38;;;;;;;0.90;0.60;;;5.30;97.20;;;;;;5055959;28;20063;-86
2020/12/27 07:34:05;;;;;;;0.50;0.50;;;5.30;97.00;;;;;;5085541;28;20036;-87
2020/12/27 07:36:33;;;;;;;1.75;0.50;;;5.30;97.20;;;;;;5055814;28;20067;-88
2020/12/27 07:39:06;;;;;;;1.27;0.77;;;5.30;97.00;;;;;;5079298;28;20031;-87
2020/12/27 07:41:37;;;;;;;0.98;0.65;;;5.30;96.90;;;;;;5083549;28;20077;-89
2020/12/27 07:44:04;;;;;;;;;;;5.30;96.80;;;;;;5087826;28;20020;-88
2020/12/27 07:46:29;;;;;;;1.30;0.50;;;5.40;96.80;;;;;;5063854;28;19908;-89
2020/12/27 07:48:55;;;;;;;0.93;0.57;;;5.30;96.70;;;;;;5076240;28;20170;-88
2020/12/27 07:51:23;;;;;;;0.93;0.50;;;5.40;96.70;;;;;;5079424;28;20028;-87
2020/12/27 07:53:50;;;;;;;0.60;0.50;;;5.40;96.70;;;;;;5075155;28;20052;-88
2020/12/27 07:56:18;;;;;;;0.75;0.40;;;5.40;96.70;;;;;;5074564;28;20025;-90
2020/12/27 07:58:58;;;;;;;0.70;0.50;;;5.40;96.60;;;;;;5073003;28;20038;-89
2020/12/27 08:01:32;;;;;;;0.50;0.40;;;5.40;96.50;;;;;;5054516;28;20051;-87
2020/12/27 08:03:59;;;;;;;0.52;0.40;;;5.50;96.50;;;;;;5072920;28;20031;-88
2020/12/27 08:06:27;;;;;;;1.17;0.30;;;5.50;96.40;;;;;;5086749;28;20025;-89
2020/12/27 08:09:05;;;;;;;0.43;0.30;;;5.50;96.20;;;;;;5045808;28;20115;-89
2020/12/27 08:11:32;;;;;;;1.30;0.40;;;5.50;96.10;;;;;;5072045;28;20024;-92
2020/12/27 08:14:02;;;;;;;1.30;0.50;;;5.50;96.10;;;;;;5055426;28;20021;-91
2020/12/27 08:16:28;;;;;;;3.15;1.08;;;5.50;96.00;;;;;;5055263;28;20054;-88
2020/12/27 08:19:06;;;;;;;6.55;0.65;;;5.50;96.00;;;;;;5044460;28;20025;-89
2020/12/27 08:21:32;;;;;;;1.33;0.35;;;5.60;96.00;;;;;;5055050;28;20035;-90
2020/12/27 08:24:01;;;;;;;0.40;0.40;;;5.60;95.80;;;;;;5063810;28;20028;-91
2020/12/27 08:26:28;;;;;;;0.32;0.30;;;5.60;95.70;;;;;;5078554;28;20053;-89
2020/12/27 08:29:16;;;;;;;1.90;0.40;;;5.60;95.70;;;;;;5063730;28;20039;-90
2020/12/27 08:31:44;;;;;;;1.98;0.40;;;5.60;95.40;;;;;;5054879;28;20089;-90
2020/12/27 08:34:13;;;;;;;0.25;0.22;;;5.70;95.20;;;;;;5056226;28;20097;-90
2020/12/27 08:36:44;;;;;;;0.52;0.20;;;5.70;95.20;;;;;;5049928;28;20034;-89
2020/12/27 08:39:12;;;;;;;;;;;5.80;95.10;;;;;;5054166;28;20055;-88
2020/12/27 08:41:43;;;;;;;0.65;0.20;;;5.80;95.10;;;;;;5067692;28;19908;-90
2020/12/27 08:44:46;;;;;;;1.67;0.20;;;5.90;94.80;;;;;;5054807;28;20035;-90
2020/12/27 08:47:18;;;;;;;1.27;0.20;;;5.90;94.80;;;;;;5086908;28;20047;-91
2020/12/27 08:49:55;;;;;;;0.30;0.30;;;5.90;94.80;;;;;;5058180;28;20042;-90
2020/12/27 08:52:23;;;;;;;0.43;0.25;;;5.90;94.60;;;;;;5063964;28;20086;-89
2020/12/27 08:54:57;;;;;;;0.93;0.57;;;5.90;95.00;;;;;;5075285;28;20111;-90
2020/12/27 08:57:24;;;;;;;0.85;0.50;;;5.90;95.10;;;;;;5084962;28;20029;-93
2020/12/27 08:59:59;;;;;;;0.30;0.22;;;5.90;95.10;;;;;;5063421;28;20035;-90
2020/12/27 09:02:24;;;;;;;0.35;0.35;;;5.90;95.40;;;;;;5090570;28;20116;-89
2020/12/27 09:05:19;;;;;;;0.60;0.30;;;5.90;95.50;;;;;;5056633;28;20461;-89
2020/12/27 09:07:46;;;;;;;0.45;0.30;;;5.90;95.60;;;;;;5043859;28;20105;-88
2020/12/27 09:10:22;;;;;;;0.68;0.25;;;5.90;95.80;;;;;;5078649;28;20029;-88
2020/12/27 09:13:09;;;;;;;1.40;0.30;;;5.90;95.70;;;;;;5062144;28;20040;-89
2020/12/27 09:15:46;;;;;;;1.10;0.50;;;5.90;95.70;;;;;;5060232;28;20089;-87
2020/12/27 09:18:31;;;;;;;1.15;0.30;;;5.90;95.90;;;;;;5073523;28;20120;-89
2020/12/27 09:21:05;;;;;;;0.50;0.38;;;5.90;95.80;;;;;;5068526;28;20028;-88
2020/12/27 09:23:31;;;;;;;0.30;0.30;;;5.90;95.80;;;;;;5083013;28;20112;-86
2020/12/27 09:26:11;;;;;;;2.50;0.20;;;5.90;95.90;;;;;;5052762;28;20048;-90
2020/12/27 09:28:40;;;;;;;0.28;0.15;;;5.90;96.00;;;;;;5063654;28;20059;-89
2020/12/27 09:31:13;;;;;;;0.22;0.22;;;5.90;95.90;;;;;;5092801;28;20036;-88
2020/12/27 09:33:47;;;;;;;0.40;0.28;;;5.90;95.90;;;;;;5083479;28;20024;-89
2020/12/27 09:36:14;;;;;;;0.40;0.30;;;5.90;96.00;;;;;;5068702;28;20520;-89
2020/12/27 09:38:42;;;;;;;0.35;0.20;;;5.90;96.10;;;;;;5098431;28;20028;-91
2020/12/27 09:41:13;;;;;;;0.73;0.47;;;5.90;96.00;;;;;;5060383;28;20024;-89
2020/12/27 09:43:59;;;;;;;0.32;0.32;;;5.90;96.00;;;;;;5061069;28;20373;-90
2020/12/27 09:46:43;;;;;;;0.57;0.40;;;6.00;96.10;;;;;;5051375;28;20430;-90
2020/12/27 09:49:22;;;;;;;0.38;0.30;;;5.90;95.70;;;;;;5066469;28;20473;-87
2020/12/27 09:52:12;;;;;;;0.30;0.25;;;6.00;95.90;;;;;;5098640;28;20063;-89
2020/12/27 09:54:40;;;;;;;0.50;0.28;;;6.00;96.00;;;;;;5061573;28;20024;-93
2020/12/27 09:57:17;;;;;;;3.33;0.63;;;6.00;96.00;;;;;;5078255;28;20028;-88
2020/12/27 09:59:43;;;;;;;4.32;0.50;;;6.00;96.10;;;;;;5059438;28;20013;-91
2020/12/27 10:02:09;;;;;;;0.60;0.40;;;5.90;95.80;;;;;;5060827;28;20024;-88
2020/12/27 10:04:35;;;;;;;0.43;0.40;;;6.00;96.10;;;;;;5059152;28;20040;-87
2020/12/27 10:07:01;;;;;;;0.98;0.50;;;6.00;96.30;;;;;;5068678;28;20026;-87
2020/12/27 10:09:27;;;;;;;1.15;0.40;;;6.00;96.20;;;;;;5057002;28;20029;-89
2020/12/27 10:11:53;;;;;;;3.05;0.52;;;5.90;96.40;;;;;;5094867;28;20020;-88
2020/12/27 10:14:19;;;;;;;1.98;0.40;;;5.90;96.50;;;;;;5064359;28;20033;-91
2020/12/27 10:16:45;;;;;;;0.63;0.25;;;5.90;96.60;;;;;;5076135;28;20028;-91
2020/12/27 10:19:11;;;;;;;0.55;0.43;;;5.90;96.50;;;;;;5063347;28;20024;-90
2020/12/27 10:21:37;;;;;;;0.77;0.50;;;5.90;96.40;;;;;;5041277;28;20047;-87
2020/12/27 10:24:02;;;;;;;1.48;0.60;;;5.90;96.60;;;;;;5071246;28;20028;-83
2020/12/27 10:26:28;;;;;;;0.52;0.30;;;5.90;96.60;;;;;;5076910;28;20052;-84
2020/12/27 10:28:54;;;;;;;0.50;0.38;;;5.90;96.60;;;;;;5057710;28;20063;-88
2020/12/27 10:31:19;;;;;;;2.47;0.63;;;5.90;96.60;;;;;;5059531;28;20549;-88
2020/12/27 10:33:45;;;;;;;0.40;0.40;;;5.90;96.80;;;;;;5076494;28;20040;-93
2020/12/27 10:36:10;;;;;;;0.35;0.35;;;5.90;96.70;;;;;;5056857;28;20036;-88
2020/12/27 10:38:36;;;;;;;1.27;0.55;;;5.80;96.50;;;;;;5072416;28;20418;-91
2020/12/27 10:41:03;;;;;;;1.33;0.52;;;5.90;96.80;;;;;;5057329;28;20488;-89
2020/12/27 10:43:28;;;;;;;0.60;0.40;;;5.90;96.80;;;;;;5088313;28;20070;-91
2020/12/27 10:46:01;;;;;;;0.55;0.32;;;5.80;96.50;;;;;;5056837;28;20052;-86
2020/12/27 10:48:27;;;;;;;0.63;0.40;;;5.80;96.60;;;;;;5069859;28;20035;-89
2020/12/27 10:50:52;;;;;;;0.30;0.28;;;5.90;96.50;;;;;;5041315;28;20029;-91
2020/12/27 10:53:18;;;;;;;0.82;0.28;;;5.90;96.40;;;;;;5041242;28;20033;-91
2020/12/27 10:55:48;;;;;;;0.40;0.40;;;5.90;96.20;;;;;;5058696;28;20073;-89
2020/12/27 10:58:14;;;;;;;2.17;0.50;;;5.90;96.40;;;;;;5062409;28;20028;-91
2020/12/27 11:00:43;;;;;;;0.55;0.50;;;5.90;96.30;;;;;;5062419;28;20029;-87
2020/12/27 11:03:09;;;;;;;0.47;0.30;;;5.90;96.20;;;;;;5063979;28;20040;-89
2020/12/27 11:05:34;;;;;;;1.45;0.40;;;5.90;96.20;;;;;;5063604;28;20112;-92
2020/12/27 11:08:00;;;;;;;1.02;0.40;;;5.90;96.10;;;;;;5057948;28;20028;-91
2020/12/27 11:10:25;;;;;;;0.73;0.40;;;6.00;96.20;;;;;;5055518;28;20047;-91
2020/12/27 11:12:54;;;;;;;0.68;0.32;;;6.00;96.00;;;;;;5055433;28;20412;-90
2020/12/27 11:15:20;;;;;;;0.43;0.30;;;6.00;96.00;;;;;;5059737;28;20540;-92
2020/12/27 11:17:45;;;;;;;0.30;0.30;;;6.00;95.90;;;;;;5090920;28;20059;-88
2020/12/27 11:20:13;;;;;;;0.80;0.40;;;6.00;95.70;;;;;;5081610;28;20042;-93
2020/12/27 11:22:42;;;;;;;0.68;0.38;;;6.10;95.70;;;;;;5071361;28;20127;-87
2020/12/27 11:25:09;;;;;;;1.17;0.30;;;6.10;95.70;;;;;;5095009;28;20054;-92
2020/12/27 11:27:36;;;;;;;0.60;0.30;;;6.10;95.70;;;;;;5085106;28;20043;-86
2020/12/27 11:30:04;;;;;;;0.63;0.40;;;6.10;95.70;;;;;;5076367;28;20039;-89
2020/12/27 11:32:30;;;;;;;0.70;0.35;;;6.10;95.60;;;;;;5057759;28;20190;-91
2020/12/27 11:34:55;;;;;;;0.30;0.30;;;6.10;95.60;;;;;;5071948;28;20062;-88
2020/12/27 11:37:21;;;;;;;0.57;0.30;;;6.10;95.50;;;;;;5097559;28;20034;-91
2020/12/27 11:39:47;;;;;;;0.20;0.20;;;6.20;95.30;;;;;;5063015;28;20782;-88
2020/12/27 11:42:13;;;;;;;0.50;0.20;;;6.20;94.90;;;;;;5050201;28;20043;-91
2020/12/27 11:44:39;;;;;;;0.85;0.52;;;6.20;94.90;;;;;;5085397;28;20051;-88
2020/12/27 11:47:05;;;;;;;0.35;0.25;;;6.30;94.60;;;;;;5077754;28;20054;-88
2020/12/27 11:49:34;;;;;;;2.08;0.40;;;6.30;94.70;;;;;;5096243;28;20399;-89
2020/12/27 11:52:00;;;;;;;1.45;0.30;;;6.30;94.50;;;;;;5061638;28;20043;-93
2020/12/27 11:54:25;;;;;;;0.52;0.30;;;6.30;94.40;;;;;;5050914;28;20025;-88
2020/12/27 11:56:57;;;;;;;0.20;0.20;;;6.30;94.50;;;;;;5082246;28;20069;-90
2020/12/27 11:59:23;;;;;;;0.73;0.25;;;6.30;94.30;;;;;;5107744;28;20028;-93
2020/12/27 12:01:49;;;;;;;1.52;0.30;;;6.30;94.40;;;;;;5071852;28;20028;-91
2020/12/27 12:04:16;;;;;;;1.35;0.20;;;6.40;94.20;;;;;;5057390;28;20468;-90
2020/12/27 12:06:42;;;;;;;0.22;0.20;;;6.40;94.00;;;;;;5076674;28;20115;-92
2020/12/27 12:09:11;;;;;;;0.50;0.20;;;6.40;94.20;;;;;;5070674;28;20036;-94
2020/12/27 12:11:39;;;;;;;0.20;0.10;;;6.40;93.90;;;;;;5069472;28;20050;-91
2020/12/27 12:14:08;;;;;;;0.45;0.30;;;6.50;93.70;;;;;;5099750;28;20028;-94
2020/12/27 12:16:34;;;;;;;0.47;0.20;;;6.50;93.70;;;;;;5067850;28;20029;-90
2020/12/27 12:19:00;;;;;;;0.20;0.20;;;6.50;93.50;;;;;;5075818;28;20535;-92
2020/12/27 12:21:27;;;;;;;1.27;0.45;;;6.50;93.40;;;;;;5055617;28;20058;-93
2020/12/27 12:23:53;;;;;;;1.45;0.20;;;6.50;93.10;;;;;;5077105;28;20055;-94
2020/12/27 12:26:24;;;;;;;1.55;0.20;;;6.50;93.40;;;;;;5096636;28;20048;-95
2020/12/27 12:28:50;;;;;;;0.60;0.22;;;6.50;93.30;;;;;;5103130;28;20028;-93
2020/12/27 12:31:17;;;;;;;0.22;0.20;;;6.50;93.30;;;;;;5057871;28;20036;-92
2020/12/27 12:33:43;;;;;;;0.40;0.20;;;6.50;93.50;;;;;;5087459;28;20130;-93
2020/12/27 12:36:12;;;;;;;0.50;0.20;;;6.40;93.10;;;;;;5074849;28;20024;-95
2020/12/27 12:38:38;;;;;;;1.30;0.22;;;6.50;93.10;;;;;;5041984;28;20025;-92
2020/12/27 12:41:05;;;;;;;1.65;0.28;;;6.50;93.30;;;;;;5087436;28;20113;-92
2020/12/27 12:43:33;;;;;;;0.57;0.17;;;6.50;93.30;;;;;;5070401;28;20040;-90
2020/12/27 12:45:59;;;;;;;0.32;0.20;;;6.50;93.00;;;;;;5065412;28;20032;-92
2020/12/27 12:48:24;;;;;;;1.17;0.20;;;6.50;93.20;;;;;;5044434;28;20027;-91
2020/12/27 12:50:50;;;;;;;2.22;0.20;;;6.50;93.00;;;;;;5086074;28;20031;-91
2020/12/27 12:53:17;;;;;;;0.30;0.20;;;6.50;93.00;;;;;;5056417;28;20047;-95
2020/12/27 12:55:42;;;;;;;0.88;0.40;;;6.60;92.80;;;;;;5068108;28;20105;-93
2020/12/27 12:58:08;;;;;;;0.70;0.10;;;6.50;92.80;;;;;;5080803;28;20055;-92
2020/12/27 13:00:33;;;;;;;1.88;0.17;;;6.60;93.00;;;;;;5064056;28;20048;-93
2020/12/27 13:02:59;;;;;;;0.55;0.20;;;6.60;92.80;;;;;;5084151;28;20154;-92
2020/12/27 13:05:25;;;;;;;0.22;0.20;;;6.60;92.80;;;;;;5059107;28;20039;-93